Terminal Aerodrome Forecast
Issued by NWS

Home | Current Version | Previous Version | Text Only | Print | Product List | Glossary On
Versions: 1 2 3 4 5 6 7 8 9 10 11 12 13 14 15 16 17 18
000
FTUS41 KPBZ 140800 AAA
TAFAGC
TAF AMD
KAGC 140804Z 1408/1506 20003KT 5SM BR OVC008
     FM141500 22005KT P6SM BKN020
     FM141700 23007KT P6SM VCSH BKN035 PROB30 1421/1424 6SM -TSRA
      BKN035CB=

USA.gov is the U.S. government's official web portal to all federal, state and local government web resources and services.